createdAt,value
2023-04-11T00:00:17.681Z,13.70
2023-04-11T00:02:46.826Z,13.70
2023-04-11T00:05:15.279Z,13.70
2023-04-11T00:07:43.390Z,13.70
2023-04-11T00:10:11.996Z,13.60
2023-04-11T00:12:40.286Z,13.70
2023-04-11T00:15:09.603Z,13.80
2023-04-11T00:17:39.412Z,13.80
2023-04-11T00:20:10.911Z,13.70
2023-04-11T00:22:39.998Z,13.70
2023-04-11T00:25:08.709Z,13.60
2023-04-11T00:27:36.941Z,13.70
2023-04-11T00:30:06.166Z,13.60
2023-04-11T00:32:34.701Z,13.60
2023-04-11T00:35:04.349Z,13.70
2023-04-11T00:37:36.329Z,13.60
2023-04-11T00:40:07.808Z,13.70
2023-04-11T00:42:35.970Z,13.70
2023-04-11T00:45:04.582Z,13.70
2023-04-11T00:47:34.922Z,13.70
2023-04-11T00:50:04.783Z,13.70
2023-04-11T00:52:34.316Z,13.80
2023-04-11T00:55:03.991Z,13.60
2023-04-11T00:57:32.301Z,13.50
2023-04-11T01:00:04.242Z,13.50
2023-04-11T01:02:33.574Z,13.50
2023-04-11T01:05:01.954Z,13.60
2023-04-11T01:07:33.266Z,13.60
2023-04-11T01:10:02.643Z,13.50
2023-04-11T01:12:31.745Z,13.50
2023-04-11T01:15:00.352Z,13.40
2023-04-11T01:17:28.785Z,13.30
2023-04-11T01:19:57.814Z,13.20
2023-04-11T01:22:27.675Z,13.20
2023-04-11T01:24:57.609Z,13.20
2023-04-11T01:27:27.056Z,13.20
2023-04-11T01:29:55.221Z,13.30
2023-04-11T01:32:25.096Z,13.30
2023-04-11T01:34:54.743Z,13.30
2023-04-11T01:37:22.982Z,13.20
2023-04-11T01:39:51.603Z,13.30
2023-04-11T01:42:22.161Z,13.40
2023-04-11T01:44:54.512Z,13.30
2023-04-11T01:47:23.110Z,13.30
2023-04-11T01:49:53.626Z,13.20
2023-04-11T01:52:21.800Z,13.20
2023-04-11T01:54:50.180Z,13.20
2023-04-11T01:57:19.768Z,13.20
2023-04-11T01:59:48.406Z,13.20
2023-04-11T02:02:17.339Z,13.10
2023-04-11T02:04:45.782Z,13.10
2023-04-11T02:07:16.090Z,13.10
2023-04-11T02:09:44.319Z,13.10
2023-04-11T02:12:12.619Z,13.00
2023-04-11T02:14:44.574Z,13.00
2023-04-11T02:17:14.750Z,13.00
2023-04-11T02:19:45.259Z,13.00
2023-04-11T02:22:13.808Z,13.00
2023-04-11T02:24:42.175Z,13.00
2023-04-11T02:27:12.613Z,13.00
2023-04-11T02:29:42.162Z,13.00
2023-04-11T02:32:10.626Z,12.90
2023-04-11T02:34:39.804Z,12.80
2023-04-11T02:37:08.025Z,12.90
2023-04-11T02:39:36.234Z,12.80
2023-04-11T02:42:04.555Z,12.90
2023-04-11T02:44:33.833Z,12.90
2023-04-11T02:47:04.182Z,13.00
2023-04-11T02:49:32.605Z,13.00
2023-04-11T02:52:01.718Z,13.10
2023-04-11T02:54:30.070Z,13.10
2023-04-11T02:57:02.065Z,13.00
2023-04-11T02:59:30.562Z,13.00
2023-04-11T03:02:01.075Z,13.10
2023-04-11T03:04:33.426Z,13.10
2023-04-11T03:07:12.456Z,13.20
2023-04-11T03:09:40.760Z,13.30
2023-04-11T03:12:09.198Z,13.30
2023-04-11T03:14:46.658Z,13.20
2023-04-11T03:17:14.842Z,13.20
2023-04-11T03:19:44.461Z,13.20
2023-04-11T03:22:13.195Z,13.20
2023-04-11T03:24:41.590Z,13.30
2023-04-11T03:27:09.947Z,13.30
2023-04-11T03:29:41.354Z,13.30
2023-04-11T03:32:16.164Z,13.30
2023-04-11T03:34:45.848Z,13.30
2023-04-11T03:37:14.791Z,13.30
2023-04-11T03:39:43.094Z,13.30
2023-04-11T03:42:12.662Z,13.30
2023-04-11T03:44:41.069Z,13.30
2023-04-11T03:47:09.436Z,13.40
2023-04-11T03:49:42.743Z,13.30
2023-04-11T03:52:12.658Z,13.40
2023-04-11T03:54:41.353Z,13.40
2023-04-11T03:57:12.000Z,13.50
2023-04-11T03:59:40.788Z,13.50
2023-04-11T04:02:12.111Z,13.50
2023-04-11T04:04:48.621Z,13.50
2023-04-11T04:07:31.907Z,13.50
2023-04-11T04:10:11.928Z,13.50
2023-04-11T04:12:41.966Z,13.50
2023-04-11T04:15:16.724Z,13.40
2023-04-11T04:17:48.011Z,13.30
2023-04-11T04:20:26.458Z,13.30
2023-04-11T04:23:00.163Z,13.20
2023-04-11T04:25:43.125Z,13.20
2023-04-11T04:28:12.836Z,13.10
2023-04-11T04:30:41.862Z,13.10
2023-04-11T04:33:14.667Z,13.00
2023-04-11T04:35:47.769Z,12.80
2023-04-11T04:38:19.460Z,12.60
2023-04-11T04:40:54.744Z,12.50
2023-04-11T04:43:27.241Z,12.50
2023-04-11T04:46:06.951Z,12.40
2023-04-11T04:48:45.074Z,12.40
2023-04-11T04:51:13.245Z,12.40
2023-04-11T04:53:43.596Z,12.30
2023-04-11T04:56:12.880Z,12.10
2023-04-11T04:58:47.272Z,12.00
2023-04-11T05:01:17.524Z,12.00
2023-04-11T05:03:50.762Z,12.00
2023-04-11T05:06:31.490Z,12.00
2023-04-11T05:09:06.024Z,11.90
2023-04-11T05:11:34.931Z,11.80
2023-04-11T05:14:03.363Z,11.80
2023-04-11T05:16:31.880Z,11.80
2023-04-11T05:19:02.007Z,11.80
2023-04-11T05:21:33.161Z,11.80
2023-04-11T05:24:02.829Z,11.70
2023-04-11T05:26:35.802Z,11.60
2023-04-11T05:29:04.454Z,11.60
2023-04-11T05:31:33.378Z,11.70
2023-04-11T05:34:03.466Z,11.70
2023-04-11T05:36:31.820Z,11.80
2023-04-11T05:39:00.920Z,11.80
2023-04-11T05:41:31.201Z,12.00
2023-04-11T05:43:59.467Z,12.00
2023-04-11T05:46:29.430Z,12.00
2023-04-11T05:48:58.833Z,12.00
2023-04-11T05:51:27.202Z,11.90
2023-04-11T05:53:55.617Z,11.90
2023-04-11T05:56:24.094Z,12.00
2023-04-11T05:58:53.986Z,12.00
2023-04-11T06:01:22.216Z,12.00
2023-04-11T06:03:50.874Z,12.00
2023-04-11T06:06:19.507Z,12.10
2023-04-11T06:08:47.869Z,12.10
2023-04-11T06:11:16.299Z,12.20
2023-04-11T06:13:44.448Z,12.30
2023-04-11T06:16:14.223Z,12.40
2023-04-11T06:18:42.525Z,12.40
2023-04-11T06:21:10.887Z,12.50
2023-04-11T06:23:39.147Z,12.60
2023-04-11T06:26:08.718Z,12.60
2023-04-11T06:28:37.982Z,12.60
2023-04-11T06:31:06.652Z,12.60
2023-04-11T06:33:36.608Z,12.70
2023-04-11T06:36:06.143Z,12.70
2023-04-11T06:38:36.604Z,12.70
2023-04-11T06:41:05.041Z,12.60
2023-04-11T06:43:33.243Z,12.60
2023-04-11T06:46:01.830Z,12.60
2023-04-11T06:48:30.133Z,12.70
2023-04-11T06:50:59.891Z,12.70
2023-04-11T06:53:28.375Z,12.70
2023-04-11T06:55:56.640Z,12.70
2023-04-11T06:58:24.837Z,12.70
2023-04-11T07:00:53.044Z,12.70
2023-04-11T07:03:21.347Z,12.70
2023-04-11T07:05:50.600Z,12.70
2023-04-11T07:08:20.656Z,12.80
2023-04-11T07:10:48.946Z,12.80
2023-04-11T07:13:17.197Z,12.90
2023-04-11T07:15:45.364Z,13.00
2023-04-11T07:18:14.193Z,13.00
2023-04-11T07:20:42.402Z,13.10
2023-04-11T07:23:10.933Z,13.20
2023-04-11T07:25:40.486Z,13.30
2023-04-11T07:28:08.691Z,13.40
2023-04-11T07:30:37.424Z,13.60
2023-04-11T07:33:05.900Z,13.60
2023-04-11T07:35:34.905Z,13.70
2023-04-11T07:38:03.488Z,13.70
2023-04-11T07:40:32.647Z,13.70
2023-04-11T07:43:02.808Z,13.80
2023-04-11T07:45:31.171Z,13.80
2023-04-11T07:47:59.446Z,13.90
2023-04-11T07:50:27.628Z,13.90
2023-04-11T07:52:56.768Z,14.10
2023-04-11T07:55:24.919Z,14.10
2023-04-11T07:57:53.148Z,14.10
2023-04-11T08:00:24.917Z,14.10
2023-04-11T08:02:53.419Z,14.00
2023-04-11T08:05:21.870Z,13.90
2023-04-11T08:07:50.082Z,13.70
2023-04-11T08:10:18.390Z,13.20
2023-04-11T08:12:46.661Z,13.00
2023-04-11T08:15:15.061Z,12.80
2023-04-11T08:17:45.626Z,12.80
2023-04-11T08:20:23.131Z,12.80
2023-04-11T08:22:51.494Z,12.90
2023-04-11T08:25:22.733Z,13.00
2023-04-11T08:27:52.468Z,13.00
2023-04-11T08:30:21.524Z,13.10
2023-04-11T08:32:51.433Z,13.10
2023-04-11T08:35:19.741Z,13.20
2023-04-11T08:37:49.476Z,13.20
2023-04-11T08:40:17.941Z,13.30
2023-04-11T08:42:47.007Z,13.30
2023-04-11T08:45:15.392Z,13.40
2023-04-11T08:47:45.649Z,13.40
2023-04-11T08:50:15.625Z,13.40
2023-04-11T08:52:46.100Z,13.40
2023-04-11T08:55:16.004Z,13.50
2023-04-11T08:57:44.238Z,13.40
2023-04-11T09:00:14.596Z,13.40
2023-04-11T09:03:00.666Z,13.50
2023-04-11T09:05:32.919Z,13.60
2023-04-11T09:08:03.266Z,13.70
2023-04-11T09:10:31.915Z,13.90
2023-04-11T09:13:00.724Z,14.20
2023-04-11T09:15:30.423Z,14.40
2023-04-11T09:18:00.876Z,14.60
2023-04-11T09:20:31.459Z,14.80
2023-04-11T09:23:00.332Z,15.00
2023-04-11T09:25:29.097Z,15.10
2023-04-11T09:28:09.890Z,15.30
2023-04-11T09:30:38.126Z,15.50
2023-04-11T09:33:21.870Z,15.60
2023-04-11T09:35:54.378Z,15.90
2023-04-11T09:38:30.722Z,16.20
2023-04-11T09:40:59.336Z,16.30
2023-04-11T09:43:27.647Z,16.40
2023-04-11T09:46:10.187Z,16.50
2023-04-11T09:48:46.033Z,16.60
2023-04-11T09:51:31.798Z,16.60
2023-04-11T09:54:05.250Z,16.60
2023-04-11T09:56:35.356Z,16.50
2023-04-11T09:59:05.368Z,16.40
2023-04-11T10:01:34.142Z,16.50
2023-04-11T10:04:04.452Z,16.70
2023-04-11T10:06:38.960Z,16.80
2023-04-11T10:09:09.707Z,16.90
2023-04-11T10:11:38.306Z,16.90
2023-04-11T10:14:06.558Z,17.00
2023-04-11T10:16:35.011Z,17.00
2023-04-11T10:19:26.067Z,16.90
2023-04-11T10:21:55.976Z,16.80
2023-04-11T10:24:26.592Z,16.90
2023-04-11T10:26:57.614Z,16.90
2023-04-11T10:29:51.196Z,16.90
2023-04-11T10:32:24.617Z,17.00
2023-04-11T10:35:21.740Z,17.00
2023-04-11T10:37:51.568Z,17.10
2023-04-11T10:40:20.753Z,17.00
2023-04-11T10:42:49.576Z,17.10
2023-04-11T10:45:19.662Z,17.20
2023-04-11T10:48:07.775Z,17.20
2023-04-11T10:50:40.751Z,17.10
2023-04-11T10:53:33.896Z,16.90
2023-04-11T10:56:02.385Z,16.80
2023-04-11T10:58:39.399Z,16.70
2023-04-11T11:01:26.182Z,16.60
2023-04-11T11:04:05.674Z,16.60
2023-04-11T11:06:46.230Z,16.60
2023-04-11T11:09:24.048Z,16.70
2023-04-11T11:12:07.540Z,16.80
2023-04-11T11:14:35.920Z,16.90
2023-04-11T11:17:04.557Z,17.00
2023-04-11T11:19:33.277Z,16.90
2023-04-11T11:22:03.914Z,16.90
2023-04-11T11:24:33.888Z,16.90
2023-04-11T11:27:02.038Z,16.90
2023-04-11T11:29:35.989Z,16.90
2023-04-11T11:32:04.660Z,17.10
2023-04-11T11:34:34.834Z,17.10
2023-04-11T11:37:05.165Z,17.10
2023-04-11T11:39:36.230Z,17.20
2023-04-11T11:42:04.895Z,17.20
2023-04-11T11:44:33.175Z,17.20
2023-04-11T11:47:05.646Z,17.30
2023-04-11T11:49:47.657Z,17.30
2023-04-11T11:52:32.931Z,17.30
2023-04-11T11:55:03.543Z,17.20
2023-04-11T11:57:31.807Z,17.00
2023-04-11T12:00:04.340Z,16.90
2023-04-11T12:02:36.147Z,16.90
2023-04-11T12:05:07.212Z,16.80
2023-04-11T12:07:38.725Z,16.70
2023-04-11T12:10:11.727Z,16.50
2023-04-11T12:12:41.885Z,16.50
2023-04-11T12:15:12.651Z,16.20
2023-04-11T12:17:41.796Z,15.90
2023-04-11T12:20:11.928Z,15.70
2023-04-11T12:22:40.486Z,15.40
2023-04-11T12:25:11.858Z,15.30
2023-04-11T12:27:41.006Z,15.10
2023-04-11T12:30:10.717Z,15.10
2023-04-11T12:32:39.250Z,15.10
2023-04-11T12:35:08.356Z,15.10
2023-04-11T12:37:36.745Z,15.20
2023-04-11T12:40:10.690Z,15.50
2023-04-11T12:45:13.286Z,15.80
2023-04-11T12:47:41.831Z,15.80
2023-04-11T12:50:10.596Z,15.50
2023-04-11T12:52:39.521Z,15.30
2023-04-11T12:55:08.682Z,15.20
2023-04-11T12:57:37.159Z,15.30
2023-04-11T13:00:09.101Z,15.50
2023-04-11T13:02:43.178Z,15.70
2023-04-11T13:05:14.273Z,15.70
2023-04-11T13:07:44.662Z,15.10
2023-04-11T13:10:15.678Z,14.80
2023-04-11T13:12:45.878Z,14.70
2023-04-11T13:15:16.998Z,14.70
2023-04-11T13:17:46.582Z,14.80
2023-04-11T13:20:15.029Z,14.70
2023-04-11T13:22:44.315Z,14.70
2023-04-11T13:25:13.121Z,14.70
2023-04-11T13:27:42.698Z,14.70
2023-04-11T13:30:12.006Z,14.70
2023-04-11T13:32:41.820Z,14.70
2023-04-11T13:35:10.749Z,14.60
2023-04-11T13:37:39.329Z,14.50
2023-04-11T13:40:10.824Z,14.40
2023-04-11T13:42:38.941Z,14.10
2023-04-11T13:45:08.049Z,13.70
2023-04-11T13:47:38.627Z,13.30
2023-04-11T13:50:10.136Z,13.20
2023-04-11T13:52:38.491Z,12.80
2023-04-11T13:55:07.661Z,12.60
2023-04-11T13:57:36.010Z,12.20
2023-04-11T14:00:11.237Z,12.10
2023-04-11T14:02:40.219Z,11.80
2023-04-11T14:05:11.437Z,11.60
2023-04-11T14:07:39.620Z,11.70
2023-04-11T14:10:08.638Z,11.70
2023-04-11T14:12:37.234Z,11.70
2023-04-11T14:15:06.269Z,11.50
2023-04-11T14:17:34.576Z,11.50
2023-04-11T14:20:03.710Z,11.40
2023-04-11T14:22:33.446Z,11.40
2023-04-11T14:25:01.836Z,11.30
2023-04-11T14:27:30.124Z,11.30
2023-04-11T14:29:58.394Z,11.40
2023-04-11T14:32:26.762Z,11.50
2023-04-11T14:34:55.041Z,11.60
2023-04-11T14:37:23.317Z,11.70
2023-04-11T14:39:53.303Z,11.70
2023-04-11T14:42:21.630Z,11.70
2023-04-11T14:44:50.406Z,11.90
2023-04-11T14:47:18.689Z,12.00
2023-04-11T14:49:47.157Z,12.10
2023-04-11T14:52:15.671Z,12.30
2023-04-11T14:54:44.114Z,12.40
2023-04-11T14:57:13.860Z,12.40
2023-04-11T14:59:43.326Z,12.60
2023-04-11T15:02:11.897Z,12.80
2023-04-11T15:04:40.651Z,13.00
2023-04-11T15:07:08.952Z,13.10
2023-04-11T15:09:37.159Z,13.20
2023-04-11T15:12:05.782Z,13.30
2023-04-11T15:14:35.478Z,13.40
2023-04-11T15:17:04.134Z,13.60
2023-04-11T15:19:32.310Z,13.60
2023-04-11T15:22:00.557Z,13.80
2023-04-11T15:24:28.921Z,13.80
2023-04-11T15:26:57.446Z,13.90
2023-04-11T15:29:25.863Z,14.00
2023-04-11T15:31:55.488Z,14.00
2023-04-11T15:34:24.890Z,14.00
2023-04-11T15:36:53.055Z,13.90
2023-04-11T15:39:21.312Z,14.00
2023-04-11T15:41:49.488Z,14.00
2023-04-11T15:44:18.030Z,14.00
2023-04-11T15:46:48.991Z,14.00
2023-04-11T15:49:19.091Z,13.90
2023-04-11T15:51:47.464Z,13.90
2023-04-11T15:54:15.674Z,13.90
2023-04-11T15:56:44.006Z,13.90
2023-04-11T15:59:12.963Z,13.80
2023-04-11T16:01:41.786Z,13.80
2023-04-11T16:04:11.339Z,13.70
2023-04-11T16:06:40.992Z,13.30
2023-04-11T16:09:09.247Z,13.00
2023-04-11T16:11:39.821Z,12.80
2023-04-11T16:14:08.171Z,12.70
2023-04-11T16:16:36.474Z,12.60
2023-04-11T16:19:04.646Z,12.60
2023-04-11T16:21:33.029Z,12.60
2023-04-11T16:24:02.605Z,12.60
2023-04-11T16:26:30.969Z,12.70
2023-04-11T16:28:59.159Z,12.80
2023-04-11T16:31:27.332Z,12.80
2023-04-11T16:33:56.042Z,13.00
2023-04-11T16:36:24.508Z,13.00
2023-04-11T16:38:52.730Z,13.00
2023-04-11T16:41:22.470Z,12.90
2023-04-11T16:43:50.710Z,12.90
2023-04-11T16:46:19.265Z,12.80
2023-04-11T16:48:47.629Z,12.70
2023-04-11T16:51:18.501Z,12.70
2023-04-11T16:53:47.454Z,12.60
2023-04-11T16:56:30.942Z,12.50
2023-04-11T16:59:01.567Z,12.40
2023-04-11T17:01:29.768Z,12.20
2023-04-11T17:03:58.392Z,12.10
2023-04-11T17:06:27.176Z,12.00
2023-04-11T17:08:57.057Z,11.70
2023-04-11T17:11:27.119Z,11.70
2023-04-11T17:13:56.161Z,11.60
2023-04-11T17:16:24.591Z,11.60
2023-04-11T17:18:53.279Z,11.60
2023-04-11T17:21:21.858Z,11.60
2023-04-11T17:23:50.705Z,11.70
2023-04-11T17:26:20.265Z,11.70
2023-04-11T17:28:50.393Z,11.80
2023-04-11T17:31:21.750Z,11.70
2023-04-11T17:33:50.397Z,11.70
2023-04-11T17:36:18.763Z,11.70
2023-04-11T17:38:49.417Z,11.70
2023-04-11T17:41:17.873Z,11.60
2023-04-11T17:43:46.971Z,11.50
2023-04-11T17:46:16.866Z,11.50
2023-04-11T17:48:45.521Z,11.50
2023-04-11T17:51:13.684Z,11.50
2023-04-11T17:53:42.559Z,11.40
2023-04-11T17:56:10.864Z,11.40
2023-04-11T17:58:42.512Z,11.30
2023-04-11T18:01:12.914Z,11.30
2023-04-11T18:03:42.718Z,11.20
2023-04-11T18:06:12.151Z,11.20
2023-04-11T18:08:51.006Z,11.10
2023-04-11T18:11:21.212Z,11.00
2023-04-11T18:13:50.514Z,11.10
2023-04-11T18:16:19.311Z,11.00
2023-04-11T18:18:49.444Z,11.00
2023-04-11T18:21:17.965Z,10.80
2023-04-11T18:23:46.874Z,10.80
2023-04-11T18:26:15.183Z,10.90
2023-04-11T18:28:43.406Z,10.90
2023-04-11T18:31:12.164Z,10.90
2023-04-11T18:33:43.895Z,10.90
2023-04-11T18:36:15.577Z,10.90
2023-04-11T18:38:44.137Z,10.90
2023-04-11T18:41:12.514Z,10.90
2023-04-11T18:43:41.332Z,10.90
2023-04-11T18:46:09.750Z,11.00
2023-04-11T18:48:38.172Z,11.00
2023-04-11T18:51:07.322Z,10.90
2023-04-11T18:53:37.657Z,10.90
2023-04-11T18:56:07.248Z,10.90
2023-04-11T18:58:39.727Z,10.90
2023-04-11T19:01:15.336Z,10.90
2023-04-11T19:03:46.543Z,10.80
2023-04-11T19:06:15.329Z,10.80
2023-04-11T19:08:46.296Z,10.80
2023-04-11T19:11:14.611Z,10.80
2023-04-11T19:13:43.214Z,10.70
2023-04-11T19:16:11.927Z,10.80
2023-04-11T19:18:40.497Z,10.70
2023-04-11T19:21:09.130Z,10.70
2023-04-11T19:23:40.287Z,10.70
2023-04-11T19:26:10.921Z,10.70
2023-04-11T19:28:40.455Z,10.70
2023-04-11T19:31:09.882Z,10.60
2023-04-11T19:33:38.966Z,10.60
2023-04-11T19:36:07.650Z,10.60
2023-04-11T19:38:36.205Z,10.60
2023-04-11T19:41:13.078Z,10.50
2023-04-11T19:43:42.801Z,10.50
2023-04-11T19:46:12.289Z,10.50
2023-04-11T19:48:41.352Z,10.40
2023-04-11T19:51:10.305Z,10.30
2023-04-11T19:53:39.189Z,10.30
2023-04-11T19:56:09.938Z,10.30
2023-04-11T19:58:39.904Z,10.30
2023-04-11T20:01:09.719Z,10.30
2023-04-11T20:03:40.196Z,10.20
2023-04-11T20:06:09.491Z,10.10
2023-04-11T20:08:38.197Z,10.10
2023-04-11T20:11:06.982Z,10.10
2023-04-11T20:13:36.015Z,10.00
2023-04-11T20:16:09.178Z,10.00
2023-04-11T20:18:37.416Z,9.90
2023-04-11T20:21:07.505Z,9.90
2023-04-11T20:23:37.167Z,9.80
2023-04-11T20:26:05.555Z,9.80
2023-04-11T20:28:33.679Z,9.80
2023-04-11T20:31:04.286Z,9.80
2023-04-11T20:33:33.918Z,9.70
2023-04-11T20:36:03.343Z,9.70
2023-04-11T20:38:32.084Z,9.70
2023-04-11T20:41:03.615Z,9.70
2023-04-11T20:43:32.383Z,9.60
2023-04-11T20:46:00.690Z,9.60
2023-04-11T20:48:32.038Z,9.60
2023-04-11T20:51:02.400Z,9.60
2023-04-11T20:53:30.768Z,9.60
2023-04-11T20:55:59.048Z,9.50
2023-04-11T20:58:28.198Z,9.50
2023-04-11T21:00:56.382Z,9.50
2023-04-11T21:03:24.660Z,9.50
2023-04-11T21:05:52.904Z,9.50
2023-04-11T21:08:24.028Z,9.40
2023-04-11T21:10:52.260Z,9.40
2023-04-11T21:13:20.796Z,9.40
2023-04-11T21:15:49.027Z,9.40
2023-04-11T21:18:17.337Z,9.40
2023-04-11T21:20:46.157Z,9.30
2023-04-11T21:23:14.307Z,9.30
2023-04-11T21:25:43.860Z,9.30
2023-04-11T21:28:12.147Z,9.30
2023-04-11T21:30:42.174Z,9.20
2023-04-11T21:33:11.126Z,9.30
2023-04-11T21:35:39.384Z,9.20
2023-04-11T21:38:08.452Z,9.20
2023-04-11T21:40:36.824Z,9.20
2023-04-11T21:43:06.883Z,9.10
2023-04-11T21:45:35.313Z,9.10
2023-04-11T21:48:03.584Z,9.10
2023-04-11T21:50:31.718Z,9.10
2023-04-11T21:52:59.841Z,9.10
2023-04-11T21:55:28.171Z,9.00
2023-04-11T21:57:56.627Z,9.10
2023-04-11T22:00:26.568Z,9.00
2023-04-11T22:02:54.929Z,9.00
2023-04-11T22:05:23.729Z,9.00
2023-04-11T22:07:52.084Z,8.90
2023-04-11T22:10:28.675Z,8.90
2023-04-11T22:13:03.589Z,8.90
2023-04-11T22:15:33.353Z,8.90
2023-04-11T22:18:02.387Z,8.90
2023-04-11T22:20:30.559Z,8.90
2023-04-11T22:22:58.791Z,8.80
2023-04-11T22:25:27.102Z,8.60
2023-04-11T22:27:55.656Z,8.40
2023-04-11T22:30:24.884Z,8.20
2023-04-11T22:32:55.554Z,8.20
2023-04-11T22:35:24.784Z,8.30
2023-04-11T22:37:53.927Z,8.30
2023-04-11T22:40:23.105Z,8.40
2023-04-11T22:42:51.933Z,8.40
2023-04-11T22:45:20.856Z,8.50
2023-04-11T22:47:53.939Z,8.50
2023-04-11T22:50:23.650Z,8.50
2023-04-11T22:52:51.870Z,8.50
2023-04-11T22:55:21.155Z,8.50
2023-04-11T22:57:49.524Z,8.50
2023-04-11T23:00:18.853Z,8.50
2023-04-11T23:02:47.304Z,8.50
2023-04-11T23:05:16.680Z,8.50
2023-04-11T23:07:46.399Z,8.50
2023-04-11T23:10:15.438Z,8.50
2023-04-11T23:12:44.507Z,8.40
2023-04-11T23:15:13.449Z,8.40
2023-04-11T23:17:41.914Z,8.40
2023-04-11T23:20:13.128Z,8.40
2023-04-11T23:22:43.875Z,8.30
2023-04-11T23:25:15.471Z,8.30
2023-04-11T23:27:44.443Z,8.30
2023-04-11T23:30:14.851Z,8.30
2023-04-11T23:32:43.260Z,8.20
2023-04-11T23:35:11.774Z,8.20
2023-04-11T23:37:40.822Z,8.20
2023-04-11T23:40:13.740Z,8.10
2023-04-11T23:42:43.445Z,8.10
2023-04-11T23:45:14.272Z,8.10
2023-04-11T23:47:42.548Z,8.10
2023-04-11T23:50:12.174Z,8.00
2023-04-11T23:52:40.789Z,8.00
2023-04-11T23:55:09.744Z,8.00
2023-04-11T23:57:37.869Z,8.00
